createdAt,value
2022-08-30T00:01:16.027Z,3.30
2022-08-30T00:03:45.935Z,2.83
2022-08-30T00:06:16.092Z,3.23
2022-08-30T00:08:44.948Z,2.87
2022-08-30T00:11:16.828Z,3.07
2022-08-30T00:13:45.705Z,2.50
2022-08-30T00:16:13.347Z,3.00
2022-08-30T00:18:41.185Z,3.13
2022-08-30T00:21:08.830Z,3.30
2022-08-30T00:23:36.126Z,3.40
2022-08-30T00:26:03.359Z,3.00
2022-08-30T00:28:32.234Z,3.30
2022-08-30T00:30:59.239Z,2.60
2022-08-30T00:33:26.289Z,2.80
2022-08-30T00:35:53.297Z,2.60
2022-08-30T00:38:20.497Z,3.20
2022-08-30T00:40:47.603Z,3.23
2022-08-30T00:43:23.160Z,2.70
2022-08-30T00:45:52.803Z,2.83
2022-08-30T00:48:19.863Z,3.43
2022-08-30T00:50:56.775Z,2.60
2022-08-30T00:53:29.619Z,3.13
2022-08-30T00:55:59.668Z,2.57
2022-08-30T00:58:38.016Z,3.10
2022-08-30T01:01:08.447Z,3.07
2022-08-30T01:03:38.790Z,3.37
2022-08-30T01:06:07.643Z,2.70
2022-08-30T01:08:35.259Z,2.90
2022-08-30T01:11:04.396Z,2.60
2022-08-30T01:13:33.782Z,2.90
2022-08-30T01:16:02.641Z,2.70
2022-08-30T01:18:32.088Z,3.30
2022-08-30T01:21:15.594Z,2.73
2022-08-30T01:23:45.926Z,2.70
2022-08-30T01:26:15.876Z,2.80
2022-08-30T01:28:48.703Z,2.70
2022-08-30T01:31:16.338Z,2.90
2022-08-30T01:33:43.678Z,2.87
2022-08-30T01:36:14.065Z,2.90
2022-08-30T01:38:56.912Z,2.57
2022-08-30T01:41:35.234Z,2.73
2022-08-30T01:44:07.465Z,2.60
2022-08-30T01:46:40.313Z,2.60
2022-08-30T01:49:12.958Z,2.73
2022-08-30T01:51:40.580Z,2.23
2022-08-30T01:54:08.246Z,3.00
2022-08-30T01:56:36.345Z,2.70
2022-08-30T01:59:04.921Z,3.00
2022-08-30T02:01:36.990Z,2.57
2022-08-30T02:04:05.443Z,2.90
2022-08-30T02:06:32.540Z,2.57
2022-08-30T02:08:59.872Z,3.10
2022-08-30T02:11:26.965Z,3.13
2022-08-30T02:13:53.994Z,2.57
2022-08-30T02:16:23.924Z,2.80
2022-08-30T02:18:54.118Z,2.80
2022-08-30T02:21:21.521Z,2.77
2022-08-30T02:23:48.656Z,3.30
2022-08-30T02:26:17.554Z,3.13
2022-08-30T02:28:49.868Z,2.17
2022-08-30T02:31:20.771Z,2.10
2022-08-30T02:33:50.844Z,2.83
2022-08-30T02:36:19.165Z,2.60
2022-08-30T02:38:47.133Z,2.67
2022-08-30T02:41:14.883Z,2.67
2022-08-30T02:43:41.887Z,2.63
2022-08-30T02:46:09.044Z,2.60
2022-08-30T02:48:36.438Z,2.50
2022-08-30T02:51:11.172Z,3.00
2022-08-30T02:53:40.383Z,2.80
2022-08-30T02:56:07.972Z,2.90
2022-08-30T02:58:34.982Z,2.70
2022-08-30T03:01:02.383Z,3.17
2022-08-30T03:03:29.485Z,2.70
2022-08-30T03:05:56.511Z,3.57
2022-08-30T03:08:23.998Z,2.77
2022-08-30T03:10:51.601Z,2.90
2022-08-30T03:13:18.606Z,2.87
2022-08-30T03:15:45.674Z,2.70
2022-08-30T03:18:12.606Z,3.37
2022-08-30T03:20:42.181Z,3.47
2022-08-30T03:23:21.626Z,3.13
2022-08-30T03:25:49.046Z,3.40
2022-08-30T03:28:16.098Z,2.77
2022-08-30T03:30:43.081Z,2.57
2022-08-30T03:33:10.038Z,2.50
2022-08-30T03:35:38.467Z,2.70
2022-08-30T03:38:06.382Z,2.67
2022-08-30T03:40:33.546Z,3.30
2022-08-30T03:43:01.021Z,3.23
2022-08-30T03:45:28.471Z,2.97
2022-08-30T03:47:55.499Z,2.77
2022-08-30T03:50:22.799Z,2.60
2022-08-30T03:52:49.852Z,3.00
2022-08-30T03:55:17.055Z,2.80
2022-08-30T03:57:44.073Z,2.60
2022-08-30T04:00:12.156Z,2.50
2022-08-30T04:02:40.049Z,2.40
2022-08-30T04:05:09.172Z,2.70
2022-08-30T04:07:36.595Z,2.70
2022-08-30T04:10:06.799Z,2.73
2022-08-30T04:12:33.930Z,3.23
2022-08-30T04:15:00.844Z,3.00
2022-08-30T04:17:28.334Z,2.47
2022-08-30T04:19:55.362Z,2.90
2022-08-30T04:22:22.324Z,2.50
2022-08-30T04:24:49.324Z,2.50
2022-08-30T04:27:20.189Z,3.00
2022-08-30T04:29:48.023Z,2.80
2022-08-30T04:32:16.423Z,2.67
2022-08-30T04:34:44.472Z,2.77
2022-08-30T04:37:11.666Z,2.80
2022-08-30T04:39:39.086Z,2.90
2022-08-30T04:42:06.913Z,2.57
2022-08-30T04:44:34.038Z,2.60
2022-08-30T04:47:01.175Z,3.00
2022-08-30T04:49:28.330Z,2.87
2022-08-30T04:51:55.816Z,2.77
2022-08-30T04:54:22.895Z,3.00
2022-08-30T04:56:49.886Z,2.47
2022-08-30T04:59:18.055Z,2.93
2022-08-30T05:01:46.097Z,2.80
2022-08-30T05:04:15.328Z,2.70
2022-08-30T05:06:42.999Z,2.70
2022-08-30T05:09:10.027Z,2.83
2022-08-30T05:11:38.573Z,3.13
2022-08-30T05:14:05.919Z,3.03
2022-08-30T05:16:33.090Z,3.10
2022-08-30T05:19:00.319Z,2.70
2022-08-30T05:21:28.802Z,3.10
2022-08-30T05:24:00.006Z,3.17
2022-08-30T05:26:32.275Z,3.00
2022-08-30T05:28:59.709Z,2.67
2022-08-30T05:31:33.572Z,3.90
2022-08-30T05:34:01.990Z,2.80
2022-08-30T05:36:32.343Z,3.00
2022-08-30T05:39:00.579Z,3.13
2022-08-30T05:41:28.621Z,2.67
2022-08-30T05:43:58.320Z,2.70
2022-08-30T05:46:29.506Z,2.73
2022-08-30T05:48:57.257Z,2.87
2022-08-30T05:51:28.771Z,2.60
2022-08-30T05:53:58.177Z,3.50
2022-08-30T05:56:30.991Z,3.07
2022-08-30T05:58:58.814Z,2.53
2022-08-30T06:01:28.292Z,2.80
2022-08-30T06:04:03.007Z,2.70
2022-08-30T06:06:35.144Z,2.70
2022-08-30T06:09:08.546Z,2.90
2022-08-30T06:11:36.561Z,2.80
2022-08-30T06:14:05.332Z,2.80
2022-08-30T06:16:33.169Z,3.10
2022-08-30T06:19:00.483Z,2.80
2022-08-30T06:21:35.009Z,2.53
2022-08-30T06:24:04.497Z,2.50
2022-08-30T06:28:59.910Z,2.60
2022-08-30T06:31:27.258Z,3.30
2022-08-30T06:33:56.030Z,2.60
2022-08-30T06:36:25.531Z,2.57
2022-08-30T06:38:56.175Z,2.63
2022-08-30T06:41:27.410Z,2.73
2022-08-30T06:43:55.763Z,3.33
2022-08-30T06:46:28.595Z,3.07
2022-08-30T06:48:57.151Z,3.03
2022-08-30T06:51:31.482Z,2.90
2022-08-30T06:53:59.577Z,3.23
2022-08-30T06:56:27.736Z,3.07
2022-08-30T06:58:55.220Z,2.63
2022-08-30T07:01:25.816Z,2.97
2022-08-30T07:03:53.855Z,2.70
2022-08-30T07:06:22.372Z,3.00
2022-08-30T07:08:56.008Z,2.70
2022-08-30T07:11:37.057Z,3.37
2022-08-30T07:14:06.526Z,2.60
2022-08-30T07:16:34.275Z,3.20
2022-08-30T07:19:05.539Z,3.07
2022-08-30T07:21:43.242Z,2.50
2022-08-30T07:24:12.506Z,2.60
2022-08-30T07:26:51.660Z,3.20
2022-08-30T07:29:19.006Z,3.03
2022-08-30T07:31:47.067Z,3.30
2022-08-30T07:34:14.073Z,3.40
2022-08-30T07:36:41.015Z,2.80
2022-08-30T07:39:08.357Z,3.70
2022-08-30T07:41:38.781Z,3.03
2022-08-30T07:44:08.261Z,2.90
2022-08-30T07:46:36.032Z,3.13
2022-08-30T07:49:04.093Z,2.73
2022-08-30T07:51:32.782Z,3.20
2022-08-30T07:54:00.604Z,3.13
2022-08-30T07:56:27.894Z,3.03
2022-08-30T07:58:55.446Z,3.30
2022-08-30T08:01:23.620Z,3.03
2022-08-30T08:03:51.824Z,3.27
2022-08-30T08:06:21.635Z,2.97
2022-08-30T08:08:50.063Z,3.70
2022-08-30T08:11:29.334Z,2.87
2022-08-30T08:13:58.609Z,3.27
2022-08-30T08:16:31.295Z,3.07
2022-08-30T08:18:58.318Z,3.77
2022-08-30T08:21:26.285Z,3.60
2022-08-30T08:23:53.647Z,3.30
2022-08-30T08:26:21.628Z,4.13
2022-08-30T08:28:48.896Z,3.47
2022-08-30T08:31:29.903Z,3.40
2022-08-30T08:34:04.187Z,3.40
2022-08-30T08:36:33.226Z,3.10
2022-08-30T08:39:01.704Z,3.13
2022-08-30T08:41:52.958Z,3.40
2022-08-30T08:45:03.638Z,3.60
2022-08-30T08:47:57.036Z,3.80
2022-08-30T08:50:24.852Z,4.43
2022-08-30T08:53:46.193Z,3.27
2022-08-30T08:56:17.170Z,3.40
2022-08-30T08:58:52.555Z,3.23
2022-08-30T09:01:28.057Z,4.00
2022-08-30T09:03:59.461Z,3.57
2022-08-30T09:07:01.697Z,3.33
2022-08-30T09:09:40.416Z,3.27
2022-08-30T09:12:11.181Z,2.77
2022-08-30T09:14:46.569Z,3.53
2022-08-30T09:17:19.022Z,4.00
2022-08-30T09:19:52.023Z,3.20
2022-08-30T09:22:37.784Z,3.30
2022-08-30T09:25:14.091Z,3.93
2022-08-30T09:27:48.275Z,3.30
2022-08-30T09:30:27.268Z,3.20
2022-08-30T09:33:06.117Z,3.27
2022-08-30T09:35:37.620Z,3.73
2022-08-30T09:38:22.090Z,3.43
2022-08-30T09:40:56.130Z,3.50
2022-08-30T09:43:28.399Z,3.33
2022-08-30T09:46:01.465Z,3.50
2022-08-30T09:48:40.702Z,3.67
2022-08-30T09:51:10.960Z,3.47
2022-08-30T09:54:18.999Z,2.60
2022-08-30T09:57:15.807Z,3.27
2022-08-30T10:00:28.244Z,3.43
2022-08-30T10:03:35.619Z,3.40
2022-08-30T10:06:34.118Z,2.90
2022-08-30T10:09:03.874Z,3.90
2022-08-30T10:11:37.604Z,3.73
2022-08-30T10:14:52.700Z,3.80
2022-08-30T10:17:35.013Z,3.50
2022-08-30T10:20:34.121Z,3.87
2022-08-30T10:23:29.691Z,2.70
2022-08-30T10:26:12.023Z,3.17
2022-08-30T10:29:06.932Z,3.00
2022-08-30T10:31:50.434Z,3.07
2022-08-30T10:34:44.800Z,3.27
2022-08-30T10:37:16.608Z,3.47
2022-08-30T10:39:51.331Z,3.20
2022-08-30T10:42:25.884Z,3.67
2022-08-30T10:45:14.150Z,3.47
2022-08-30T10:47:50.307Z,3.63
2022-08-30T10:50:29.809Z,3.30
2022-08-30T10:53:39.657Z,3.23
2022-08-30T10:56:13.195Z,3.57
2022-08-30T10:58:42.793Z,3.87
2022-08-30T11:01:50.434Z,3.03
2022-08-30T11:04:29.463Z,3.03
2022-08-30T11:07:05.847Z,3.97
2022-08-30T11:09:52.425Z,3.53
2022-08-30T11:13:02.874Z,3.30
2022-08-30T11:15:36.181Z,3.77
2022-08-30T11:18:09.433Z,3.70
2022-08-30T11:20:49.020Z,4.10
2022-08-30T11:23:19.159Z,3.50
2022-08-30T11:26:50.266Z,3.80
2022-08-30T11:29:29.825Z,3.67
2022-08-30T11:32:23.459Z,4.57
2022-08-30T11:34:57.999Z,3.53
2022-08-30T11:37:45.230Z,3.60
2022-08-30T11:40:24.874Z,3.33
2022-08-30T11:42:55.351Z,3.67
2022-08-30T11:45:26.912Z,3.27
2022-08-30T11:48:09.981Z,3.77
2022-08-30T11:51:00.432Z,3.60
2022-08-30T11:53:46.307Z,3.60
2022-08-30T11:56:21.298Z,3.77
2022-08-30T11:58:57.024Z,3.53
2022-08-30T12:01:51.165Z,3.77
2022-08-30T12:04:44.045Z,4.07
2022-08-30T12:07:12.601Z,3.80
2022-08-30T12:09:45.782Z,4.10
2022-08-30T12:12:38.463Z,3.50
2022-08-30T12:15:05.700Z,4.13
2022-08-30T12:18:15.452Z,3.47
2022-08-30T12:20:50.516Z,3.33
2022-08-30T12:23:28.935Z,3.63
2022-08-30T12:26:31.284Z,3.87
2022-08-30T12:29:16.922Z,4.30
2022-08-30T12:31:46.800Z,4.60
2022-08-30T12:34:31.001Z,4.13
2022-08-30T12:37:09.004Z,4.23
2022-08-30T12:39:43.258Z,3.77
2022-08-30T12:42:19.295Z,4.17
2022-08-30T12:44:49.002Z,4.53
2022-08-30T12:47:26.921Z,3.80
2022-08-30T12:49:55.070Z,3.63
2022-08-30T12:52:31.729Z,3.37
2022-08-30T12:55:22.354Z,4.40
2022-08-30T12:58:11.107Z,3.70
2022-08-30T13:00:44.051Z,3.73
2022-08-30T13:03:26.418Z,4.00
2022-08-30T13:05:57.512Z,3.20
2022-08-30T13:08:58.186Z,3.87
2022-08-30T13:11:29.394Z,3.30
2022-08-30T13:14:36.254Z,3.87
2022-08-30T13:17:11.601Z,3.70
2022-08-30T13:19:44.073Z,3.83
2022-08-30T13:22:32.706Z,3.37
2022-08-30T13:25:00.342Z,3.27
2022-08-30T13:27:29.136Z,3.60
2022-08-30T13:29:58.323Z,3.27
2022-08-30T13:32:25.355Z,3.40
2022-08-30T13:34:52.329Z,3.47
2022-08-30T13:40:14.905Z,3.80
2022-08-30T13:42:42.960Z,3.53
2022-08-30T13:48:00.740Z,3.20
2022-08-30T13:50:28.247Z,3.77
2022-08-30T13:52:57.807Z,3.20
2022-08-30T13:55:25.190Z,4.13
2022-08-30T13:57:54.362Z,3.87
2022-08-30T14:00:22.486Z,3.23
2022-08-30T14:02:55.928Z,3.30
2022-08-30T14:06:04.632Z,3.70
2022-08-30T14:11:19.370Z,3.53
2022-08-30T14:16:38.917Z,3.57
2022-08-30T14:19:07.332Z,3.07
2022-08-30T14:21:35.732Z,3.80
2022-08-30T14:24:05.271Z,3.43
2022-08-30T14:26:45.350Z,3.30
2022-08-30T14:29:16.602Z,3.70
2022-08-30T14:31:45.001Z,3.50
2022-08-30T14:34:14.878Z,3.43
2022-08-30T14:36:44.134Z,3.57
2022-08-30T14:39:15.815Z,3.40
2022-08-30T14:41:47.795Z,3.30
2022-08-30T14:44:17.093Z,3.20
2022-08-30T14:46:44.226Z,3.80
2022-08-30T14:49:12.926Z,3.50
2022-08-30T14:51:41.120Z,3.97
2022-08-30T14:54:09.497Z,3.70
2022-08-30T14:56:38.941Z,3.73
2022-08-30T14:59:06.675Z,3.30
2022-08-30T15:01:36.941Z,3.60
2022-08-30T15:04:07.197Z,3.80
2022-08-30T15:06:36.681Z,3.70
2022-08-30T15:09:06.152Z,3.23
2022-08-30T15:11:33.755Z,3.20
2022-08-30T15:14:01.789Z,3.20
2022-08-30T15:16:34.878Z,3.40
2022-08-30T15:19:04.511Z,3.73
2022-08-30T15:21:35.790Z,3.50
2022-08-30T15:24:04.314Z,3.40
2022-08-30T15:26:31.878Z,3.10
2022-08-30T15:28:59.275Z,2.93
2022-08-30T15:31:28.818Z,3.60
2022-08-30T15:33:56.530Z,2.83
2022-08-30T15:36:25.371Z,3.60
2022-08-30T15:38:56.847Z,2.90
2022-08-30T15:41:24.179Z,3.07
2022-08-30T15:43:52.914Z,3.07
2022-08-30T15:46:30.200Z,3.43
2022-08-30T15:49:02.801Z,3.27
2022-08-30T15:51:41.273Z,3.30
2022-08-30T15:54:11.638Z,2.90
2022-08-30T15:56:41.877Z,3.27
2022-08-30T15:59:10.031Z,3.10
2022-08-30T16:01:39.138Z,3.27
2022-08-30T16:04:06.582Z,3.20
2022-08-30T16:06:37.421Z,3.87
2022-08-30T16:09:08.832Z,4.00
2022-08-30T16:11:36.460Z,3.50
2022-08-30T16:14:05.926Z,3.90
2022-08-30T16:16:33.389Z,3.70
2022-08-30T16:19:02.058Z,3.07
2022-08-30T16:21:33.731Z,3.20
2022-08-30T16:24:03.696Z,3.30
2022-08-30T16:26:32.523Z,3.60
2022-08-30T16:29:00.400Z,3.40
2022-08-30T16:31:30.308Z,3.00
2022-08-30T16:34:02.784Z,2.63
2022-08-30T16:36:32.959Z,3.20
2022-08-30T16:39:00.462Z,3.70
2022-08-30T16:41:27.973Z,3.50
2022-08-30T16:43:55.368Z,2.93
2022-08-30T16:46:27.385Z,3.30
2022-08-30T16:48:58.065Z,3.10
2022-08-30T16:51:28.729Z,3.47
2022-08-30T16:53:58.583Z,3.40
2022-08-30T16:56:29.635Z,3.33
2022-08-30T16:59:01.959Z,3.40
2022-08-30T17:01:34.691Z,2.80
2022-08-30T17:04:04.375Z,3.53
2022-08-30T17:06:32.363Z,3.23
2022-08-30T17:08:59.799Z,3.10
2022-08-30T17:11:27.598Z,3.13
2022-08-30T17:13:54.974Z,3.50
2022-08-30T17:16:27.856Z,3.10
2022-08-30T17:19:00.745Z,3.17
2022-08-30T17:21:29.846Z,3.10
2022-08-30T17:24:01.698Z,2.77
2022-08-30T17:26:35.294Z,3.53
2022-08-30T17:29:02.844Z,3.53
2022-08-30T17:31:31.078Z,3.77
2022-08-30T17:34:03.489Z,3.30
2022-08-30T17:36:35.395Z,2.97
2022-08-30T17:39:10.601Z,4.27
2022-08-30T17:41:45.457Z,3.50
2022-08-30T17:44:19.691Z,3.70
2022-08-30T17:46:46.903Z,3.70
2022-08-30T17:49:14.101Z,3.40
2022-08-30T17:51:45.646Z,3.10
2022-08-30T17:54:15.766Z,3.23
2022-08-30T17:56:43.622Z,3.13
2022-08-30T17:59:12.603Z,3.67
2022-08-30T18:01:41.669Z,3.33
2022-08-30T18:04:11.215Z,3.40
2022-08-30T18:06:39.913Z,3.07
2022-08-30T18:09:08.378Z,4.17
2022-08-30T18:11:39.767Z,3.53
2022-08-30T18:14:10.802Z,3.53
2022-08-30T18:16:53.444Z,3.33
2022-08-30T18:19:23.933Z,3.50
2022-08-30T18:21:52.235Z,3.77
2022-08-30T18:24:19.726Z,3.40
2022-08-30T18:26:46.871Z,3.27
2022-08-30T18:29:14.237Z,4.17
2022-08-30T18:31:41.425Z,3.80
2022-08-30T18:34:12.154Z,3.50
2022-08-30T18:36:41.349Z,4.00
2022-08-30T18:39:09.068Z,3.60
2022-08-30T18:41:42.927Z,3.30
2022-08-30T18:44:27.268Z,4.10
2022-08-30T18:49:42.931Z,3.57
2022-08-30T18:52:11.052Z,3.60
2022-08-30T18:54:40.876Z,4.30
2022-08-30T18:57:08.110Z,3.53
2022-08-30T18:59:37.814Z,4.27
2022-08-30T19:02:12.377Z,4.40
2022-08-30T19:04:42.913Z,4.20
2022-08-30T19:07:13.090Z,4.57
2022-08-30T19:09:43.152Z,4.57
2022-08-30T19:12:11.658Z,4.17
2022-08-30T19:14:39.414Z,5.10
2022-08-30T19:17:07.840Z,4.33
2022-08-30T19:19:45.143Z,4.57
2022-08-30T19:22:15.807Z,4.20
2022-08-30T19:24:43.485Z,4.03
2022-08-30T19:27:10.591Z,3.50
2022-08-30T19:29:37.498Z,4.33
2022-08-30T19:32:04.566Z,3.97
2022-08-30T19:34:31.791Z,3.80
2022-08-30T19:36:58.886Z,4.60
2022-08-30T19:39:26.293Z,3.83
2022-08-30T19:41:53.899Z,4.47
2022-08-30T19:44:21.074Z,4.37
2022-08-30T19:46:48.054Z,3.97
2022-08-30T19:49:15.061Z,4.40
2022-08-30T19:51:46.582Z,4.37
2022-08-30T19:54:14.643Z,4.07
2022-08-30T19:56:41.711Z,4.57
2022-08-30T19:59:09.273Z,4.40
2022-08-30T20:01:37.794Z,4.50
2022-08-30T20:04:05.009Z,4.30
2022-08-30T20:06:33.187Z,4.30
2022-08-30T20:09:01.083Z,3.93
2022-08-30T20:11:29.673Z,4.23
2022-08-30T20:13:57.388Z,3.90
2022-08-30T20:16:30.034Z,3.73
2022-08-30T20:19:06.548Z,3.67
2022-08-30T20:21:34.523Z,3.30
2022-08-30T20:24:03.398Z,4.90
2022-08-30T20:24:29.477Z,3.57
2022-08-30T20:26:34.333Z,4.23
2022-08-30T20:29:03.476Z,4.27
2022-08-30T20:31:30.843Z,4.80
2022-08-30T20:33:58.119Z,4.30
2022-08-30T20:36:26.307Z,4.40
2022-08-30T20:38:54.283Z,4.13
2022-08-30T20:41:21.366Z,4.67
2022-08-30T20:43:49.711Z,3.97
2022-08-30T20:46:19.980Z,5.00
2022-08-30T20:48:47.976Z,4.37
2022-08-30T20:51:19.921Z,4.43
2022-08-30T20:53:47.179Z,4.10
2022-08-30T20:56:19.514Z,4.03
2022-08-30T20:58:46.789Z,4.70
2022-08-30T21:01:15.959Z,3.93
2022-08-30T21:03:44.978Z,3.70
2022-08-30T21:06:12.165Z,4.10
2022-08-30T21:08:39.846Z,4.00
2022-08-30T21:11:07.498Z,4.37
2022-08-30T21:13:34.750Z,4.20
2022-08-30T21:16:03.329Z,4.40
2022-08-30T21:18:34.157Z,4.80
2022-08-30T21:21:24.845Z,4.37
2022-08-30T21:23:57.360Z,3.97
2022-08-30T21:26:25.058Z,4.80
2022-08-30T21:28:54.600Z,3.97
2022-08-30T21:31:26.079Z,3.83
2022-08-30T21:33:54.555Z,4.33
2022-08-30T21:36:42.485Z,4.13
2022-08-30T21:39:10.336Z,4.50
2022-08-30T21:41:39.410Z,4.70
2022-08-30T21:44:14.775Z,4.10
2022-08-30T21:46:43.010Z,4.30
2022-08-30T21:49:13.195Z,3.63
2022-08-30T21:51:43.599Z,4.00
2022-08-30T21:54:12.442Z,3.87
2022-08-30T21:56:42.433Z,3.70
2022-08-30T21:59:10.887Z,3.90
2022-08-30T22:01:38.403Z,3.73
2022-08-30T22:04:08.439Z,3.27
2022-08-30T22:06:38.369Z,3.77
2022-08-30T22:09:09.366Z,3.67
2022-08-30T22:11:37.318Z,3.20
2022-08-30T22:14:06.297Z,3.43
2022-08-30T22:16:35.348Z,3.00
2022-08-30T22:19:03.606Z,3.20
2022-08-30T22:21:34.134Z,2.90
2022-08-30T22:24:01.165Z,2.90
2022-08-30T22:26:28.242Z,3.17
2022-08-30T22:28:55.526Z,3.10
2022-08-30T22:31:23.518Z,3.30
2022-08-30T22:33:51.837Z,3.27
2022-08-30T22:36:32.606Z,2.77
2022-08-30T22:39:01.660Z,3.20
2022-08-30T22:41:33.962Z,3.07
2022-08-30T22:44:03.946Z,3.30
2022-08-30T22:46:34.532Z,3.50
2022-08-30T22:49:05.106Z,3.20
2022-08-30T22:51:33.077Z,3.47
2022-08-30T22:54:01.237Z,3.13
2022-08-30T22:56:28.860Z,3.10
2022-08-30T22:58:56.703Z,3.30
2022-08-30T23:01:29.538Z,3.00
2022-08-30T23:03:58.014Z,2.77
2022-08-30T23:06:25.212Z,2.73
2022-08-30T23:08:52.271Z,3.17
2022-08-30T23:11:20.354Z,2.77
2022-08-30T23:13:48.024Z,2.80
2022-08-30T23:16:16.596Z,2.77
2022-08-30T23:18:46.043Z,2.80
2022-08-30T23:21:21.037Z,3.30
2022-08-30T23:24:09.839Z,3.23
2022-08-30T23:26:56.848Z,3.70
2022-08-30T23:29:42.847Z,3.60
2022-08-30T23:32:30.292Z,4.37
2022-08-30T23:35:15.481Z,4.63
2022-08-30T23:38:01.289Z,4.57
2022-08-30T23:40:48.217Z,5.47
2022-08-30T23:43:33.529Z,5.30
2022-08-30T23:46:19.500Z,5.93
2022-08-30T23:49:07.026Z,5.70
2022-08-30T23:51:55.950Z,5.43
2022-08-30T23:54:42.789Z,5.60
2022-08-30T23:57:29.263Z,5.47
